createdAt,value
2023-03-25T00:02:27.576Z,5.22
2023-03-25T00:04:54.945Z,3.22
2023-03-25T00:07:22.870Z,4.70
2023-03-25T00:09:50.397Z,10.75
2023-03-25T00:12:19.591Z,4.80
2023-03-25T00:14:54.921Z,4.40
2023-03-25T00:17:23.200Z,7.15
2023-03-25T00:19:52.938Z,2.90
2023-03-25T00:22:19.684Z,4.38
2023-03-25T00:24:46.690Z,4.40
2023-03-25T00:27:17.661Z,2.40
2023-03-25T00:29:45.598Z,5.25
2023-03-25T00:32:13.229Z,2.22
2023-03-25T00:34:41.850Z,4.82
2023-03-25T00:37:09.709Z,5.47
2023-03-25T00:39:37.577Z,3.55
2023-03-25T00:42:04.948Z,5.85
2023-03-25T00:44:32.799Z,6.97
2023-03-25T00:46:59.805Z,4.53
2023-03-25T00:49:28.658Z,4.38
2023-03-25T00:51:56.604Z,7.80
2023-03-25T00:54:23.847Z,3.05
2023-03-25T00:56:52.127Z,3.08
2023-03-25T00:59:19.156Z,2.85
2023-03-25T01:01:48.783Z,4.18
2023-03-25T01:04:16.647Z,4.13
2023-03-25T01:06:43.954Z,2.28
2023-03-25T01:09:16.220Z,2.80
2023-03-25T01:11:44.443Z,2.10
2023-03-25T01:14:16.554Z,2.08
2023-03-25T01:16:43.947Z,1.92
2023-03-25T01:19:11.284Z,3.13
2023-03-25T01:21:38.688Z,7.28
2023-03-25T01:24:07.224Z,1.95
2023-03-25T01:26:34.487Z,1.98
2023-03-25T01:29:02.111Z,2.70
2023-03-25T01:31:30.917Z,2.90
2023-03-25T01:33:58.350Z,0.65
2023-03-25T01:36:29.509Z,4.32
2023-03-25T01:38:59.032Z,2.45
2023-03-25T01:41:35.752Z,3.35
2023-03-25T01:44:22.097Z,0.95
2023-03-25T01:46:53.990Z,0.52
2023-03-25T01:49:26.971Z,3.40
2023-03-25T01:51:56.934Z,2.38
2023-03-25T01:54:24.302Z,1.83
2023-03-25T01:56:52.365Z,2.70
2023-03-25T01:59:21.308Z,2.92
2023-03-25T02:01:48.463Z,1.77
2023-03-25T02:04:16.524Z,1.90
2023-03-25T02:06:48.235Z,2.80
2023-03-25T02:09:17.099Z,1.50
2023-03-25T02:11:43.830Z,2.22
2023-03-25T02:14:13.596Z,1.48
2023-03-25T02:16:58.963Z,3.05
2023-03-25T02:19:56.106Z,4.35
2023-03-25T02:22:49.928Z,3.92
2023-03-25T02:25:39.552Z,4.10
2023-03-25T02:28:15.201Z,2.13
2023-03-25T02:31:19.074Z,8.38
2023-03-25T02:34:04.646Z,3.70
2023-03-25T02:37:01.441Z,4.28
2023-03-25T02:39:43.181Z,1.52
2023-03-25T02:42:23.396Z,2.90
2023-03-25T02:44:53.077Z,5.03
2023-03-25T02:47:22.941Z,5.78
2023-03-25T02:49:54.683Z,2.72
2023-03-25T02:52:25.693Z,10.32
2023-03-25T02:54:57.925Z,9.10
2023-03-25T02:57:28.551Z,6.10
2023-03-25T02:59:56.781Z,6.40
2023-03-25T03:02:26.007Z,6.85
2023-03-25T03:04:55.898Z,7.27
2023-03-25T03:07:26.724Z,5.22
2023-03-25T03:10:13.291Z,4.60
2023-03-25T03:12:52.166Z,1.70
2023-03-25T03:15:24.611Z,4.18
2023-03-25T03:18:09.228Z,6.15
2023-03-25T03:20:43.909Z,4.60
2023-03-25T03:23:20.937Z,2.70
2023-03-25T03:25:52.091Z,4.45
2023-03-25T03:28:46.261Z,3.20
2023-03-25T03:31:50.753Z,4.80
2023-03-25T03:37:03.584Z,4.72
2023-03-25T03:39:35.278Z,6.50
2023-03-25T03:42:10.980Z,4.22
2023-03-25T03:44:40.316Z,4.07
2023-03-25T03:47:17.169Z,7.10
2023-03-25T03:49:53.317Z,4.20
2023-03-25T03:52:27.111Z,5.75
2023-03-25T03:55:03.972Z,8.88
2023-03-25T03:57:34.080Z,6.70
2023-03-25T04:00:09.818Z,8.27
2023-03-25T04:03:10.399Z,4.82
2023-03-25T04:05:38.199Z,5.38
2023-03-25T04:08:12.130Z,6.47
2023-03-25T04:10:59.168Z,2.65
2023-03-25T04:13:29.959Z,3.95
2023-03-25T04:16:00.058Z,4.07
2023-03-25T04:18:28.408Z,2.60
2023-03-25T04:20:55.704Z,2.15
2023-03-25T04:23:22.562Z,4.82
2023-03-25T04:25:54.840Z,5.15
2023-03-25T04:28:23.879Z,4.78
2023-03-25T04:30:55.554Z,5.68
2023-03-25T04:33:25.392Z,3.72
2023-03-25T04:35:52.690Z,4.57
2023-03-25T04:38:19.824Z,4.32
2023-03-25T04:40:47.185Z,7.75
2023-03-25T04:43:15.103Z,6.07
2023-03-25T04:45:49.403Z,9.57
2023-03-25T04:48:29.827Z,5.88
2023-03-25T04:51:00.425Z,7.82
2023-03-25T04:53:27.843Z,7.68
2023-03-25T04:55:54.919Z,6.93
2023-03-25T04:58:22.054Z,8.25
2023-03-25T05:00:50.557Z,9.57
2023-03-25T05:03:23.906Z,7.93
2023-03-25T05:05:51.779Z,6.47
2023-03-25T05:08:18.541Z,6.43
2023-03-25T05:10:45.170Z,9.55
2023-03-25T05:13:11.845Z,7.97
2023-03-25T05:15:41.334Z,6.60
2023-03-25T05:18:09.981Z,7.60
2023-03-25T05:20:39.897Z,9.45
2023-03-25T05:23:12.085Z,7.55
2023-03-25T05:25:40.237Z,9.43
2023-03-25T05:28:09.793Z,13.60
2023-03-25T05:30:39.229Z,9.83
2023-03-25T05:33:06.559Z,11.60
2023-03-25T05:35:33.232Z,18.42
2023-03-25T05:38:00.448Z,14.07
2023-03-25T05:40:27.033Z,14.27
2023-03-25T05:42:54.667Z,10.35
2023-03-25T05:45:21.751Z,17.63
2023-03-25T05:47:48.408Z,9.90
2023-03-25T05:50:15.417Z,13.10
2023-03-25T05:52:42.025Z,8.70
2023-03-25T05:55:18.820Z,12.60
2023-03-25T05:57:47.207Z,14.95
2023-03-25T06:00:15.561Z,16.35
2023-03-25T06:02:44.517Z,15.38
2023-03-25T06:05:15.490Z,11.55
2023-03-25T06:07:42.958Z,10.55
2023-03-25T06:10:10.705Z,11.52
2023-03-25T06:12:38.809Z,8.50
2023-03-25T06:15:07.874Z,14.05
2023-03-25T06:17:34.767Z,10.82
2023-03-25T06:20:05.729Z,11.77
2023-03-25T06:22:33.926Z,20.73
2023-03-25T06:25:03.707Z,7.78
2023-03-25T06:27:34.653Z,12.88
2023-03-25T06:30:02.761Z,11.73
2023-03-25T06:32:30.888Z,10.68
2023-03-25T06:34:57.583Z,15.82
2023-03-25T06:37:26.262Z,15.18
2023-03-25T06:39:56.333Z,13.35
2023-03-25T06:42:24.763Z,15.63
2023-03-25T06:45:05.724Z,10.93
2023-03-25T06:47:55.468Z,9.25
2023-03-25T06:50:22.097Z,9.85
2023-03-25T06:52:48.746Z,14.85
2023-03-25T06:55:15.920Z,11.57
2023-03-25T06:57:43.389Z,12.63
2023-03-25T07:00:14.309Z,11.50
2023-03-25T07:02:41.206Z,11.35
2023-03-25T07:05:08.363Z,10.13
2023-03-25T07:07:35.100Z,7.47
2023-03-25T07:10:01.782Z,12.38
2023-03-25T07:12:28.391Z,9.98
2023-03-25T07:14:57.143Z,14.80
2023-03-25T07:17:24.004Z,17.85
2023-03-25T07:19:50.726Z,13.38
2023-03-25T07:22:17.476Z,12.48
2023-03-25T07:24:44.393Z,12.75
2023-03-25T07:27:12.419Z,13.35
2023-03-25T07:29:40.558Z,17.42
2023-03-25T07:32:07.423Z,11.52
2023-03-25T07:34:34.021Z,13.68
2023-03-25T07:37:00.592Z,10.52
2023-03-25T07:39:27.328Z,16.58
2023-03-25T07:41:54.498Z,10.80
2023-03-25T07:44:29.585Z,13.15
2023-03-25T07:46:56.532Z,15.93
2023-03-25T07:49:23.205Z,11.25
2023-03-25T07:51:49.784Z,9.40
2023-03-25T07:54:16.371Z,9.15
2023-03-25T07:56:43.024Z,10.95
2023-03-25T07:59:09.704Z,14.57
2023-03-25T08:01:36.548Z,9.75
2023-03-25T08:04:03.300Z,8.73
2023-03-25T08:06:29.904Z,13.00
2023-03-25T08:08:56.635Z,8.30
2023-03-25T08:11:23.356Z,12.07
2023-03-25T08:13:49.936Z,15.10
2023-03-25T08:16:16.679Z,10.05
2023-03-25T08:18:44.901Z,8.32
2023-03-25T08:21:12.771Z,9.43
2023-03-25T08:23:39.452Z,7.97
2023-03-25T08:26:06.367Z,11.88
2023-03-25T08:28:33.298Z,6.82
2023-03-25T08:31:02.298Z,8.10
2023-03-25T08:33:40.779Z,13.38
2023-03-25T08:36:10.121Z,7.82
2023-03-25T08:38:37.043Z,8.93
2023-03-25T08:41:03.756Z,7.00
2023-03-25T08:43:30.377Z,13.45
2023-03-25T08:45:56.937Z,6.78
2023-03-25T08:48:24.683Z,12.20
2023-03-25T08:50:51.225Z,10.25
2023-03-25T08:53:18.046Z,10.40
2023-03-25T08:55:44.607Z,8.65
2023-03-25T08:58:11.209Z,6.57
2023-03-25T09:00:38.184Z,8.07
2023-03-25T09:03:05.291Z,7.05
2023-03-25T09:05:32.095Z,7.03
2023-03-25T09:07:58.742Z,8.73
2023-03-25T09:10:25.340Z,8.02
2023-03-25T09:12:52.683Z,7.82
2023-03-25T09:15:19.330Z,6.30
2023-03-25T09:17:46.034Z,6.40
2023-03-25T09:20:12.873Z,6.88
2023-03-25T09:22:39.608Z,8.20
2023-03-25T09:25:07.688Z,5.18
2023-03-25T09:27:34.714Z,5.18
2023-03-25T09:30:01.271Z,6.05
2023-03-25T09:32:27.939Z,8.90
2023-03-25T09:34:54.535Z,5.43
2023-03-25T09:37:21.248Z,5.78
2023-03-25T09:39:47.922Z,7.38
2023-03-25T09:42:30.919Z,6.40
2023-03-25T09:45:11.867Z,5.68
2023-03-25T09:47:41.827Z,6.47
2023-03-25T09:50:12.954Z,6.43
2023-03-25T09:52:53.705Z,6.75
2023-03-25T09:55:25.420Z,5.45
2023-03-25T09:58:00.529Z,4.20
2023-03-25T10:00:27.496Z,6.65
2023-03-25T10:03:05.875Z,4.70
2023-03-25T10:05:52.110Z,5.13
2023-03-25T10:08:28.890Z,2.47
2023-03-25T10:11:05.818Z,1.30
2023-03-25T10:13:44.175Z,3.65
2023-03-25T10:16:27.101Z,1.35
2023-03-25T10:19:09.408Z,1.70
2023-03-25T10:21:49.775Z,4.72
2023-03-25T10:24:32.536Z,1.95
2023-03-25T10:27:17.775Z,2.25
2023-03-25T10:29:52.132Z,5.10
2023-03-25T10:32:30.573Z,5.05
2023-03-25T10:34:58.955Z,4.72
2023-03-25T10:37:30.269Z,4.47
2023-03-25T10:40:49.868Z,6.18
2023-03-25T10:43:36.849Z,2.43
2023-03-25T10:46:18.649Z,5.38
2023-03-25T10:48:46.645Z,4.45
2023-03-25T10:51:15.911Z,5.70
2023-03-25T10:53:46.735Z,3.85
2023-03-25T10:56:18.005Z,3.20
2023-03-25T10:58:49.598Z,3.97
2023-03-25T11:01:19.339Z,4.78
2023-03-25T11:03:50.937Z,3.50
2023-03-25T11:06:24.298Z,4.63
2023-03-25T11:09:09.722Z,3.97
2023-03-25T11:11:36.590Z,3.70
2023-03-25T11:14:03.644Z,4.32
2023-03-25T11:16:33.155Z,5.75
2023-03-25T11:19:04.088Z,4.67
2023-03-25T11:21:32.893Z,3.78
2023-03-25T11:24:00.570Z,4.10
2023-03-25T11:26:30.408Z,2.78
2023-03-25T11:29:02.533Z,2.50
2023-03-25T11:31:34.602Z,4.88
2023-03-25T11:34:17.509Z,5.05
2023-03-25T11:36:53.018Z,5.05
2023-03-25T11:39:23.022Z,3.90
2023-03-25T11:41:50.204Z,4.03
2023-03-25T11:44:29.081Z,4.57
2023-03-25T11:47:03.245Z,7.80
2023-03-25T11:49:35.214Z,4.13
2023-03-25T11:52:20.961Z,2.72
2023-03-25T11:54:47.772Z,3.92
2023-03-25T11:57:17.592Z,2.38
2023-03-25T11:59:46.540Z,2.03
2023-03-25T12:02:31.882Z,2.95
2023-03-25T12:05:12.112Z,2.97
2023-03-25T12:07:45.089Z,2.33
2023-03-25T12:10:35.143Z,4.93
2023-03-25T12:13:04.669Z,5.25
2023-03-25T12:15:50.226Z,3.97
2023-03-25T12:18:27.082Z,8.32
2023-03-25T12:20:59.745Z,6.22
2023-03-25T12:23:44.805Z,5.30
2023-03-25T12:26:19.585Z,5.25
2023-03-25T12:29:08.545Z,4.60
2023-03-25T12:31:53.725Z,3.35
2023-03-25T12:34:30.845Z,3.03
2023-03-25T12:37:16.527Z,5.63
2023-03-25T12:40:09.703Z,6.40
2023-03-25T12:42:36.534Z,5.22
2023-03-25T12:45:29.943Z,4.43
2023-03-25T12:48:17.358Z,4.30
2023-03-25T12:51:38.481Z,4.40
2023-03-25T12:54:11.717Z,3.67
2023-03-25T12:57:00.917Z,2.75
2023-03-25T12:59:53.806Z,3.28
2023-03-25T13:02:46.401Z,4.60
2023-03-25T13:05:27.392Z,2.85
2023-03-25T13:07:57.387Z,2.75
2023-03-25T13:10:28.920Z,5.18
2023-03-25T13:12:58.191Z,3.47
2023-03-25T13:15:32.816Z,4.63
2023-03-25T13:18:22.465Z,3.83
2023-03-25T13:21:06.756Z,5.55
2023-03-25T13:23:39.966Z,2.30
2023-03-25T13:26:11.661Z,6.07
2023-03-25T13:28:43.563Z,3.95
2023-03-25T13:31:14.568Z,6.03
2023-03-25T13:33:45.683Z,2.53
2023-03-25T13:36:27.224Z,5.15
2023-03-25T13:39:16.447Z,4.20
2023-03-25T13:41:56.886Z,5.43
2023-03-25T13:44:36.777Z,6.38
2023-03-25T13:47:06.869Z,5.90
2023-03-25T13:49:44.417Z,5.55
2023-03-25T13:52:14.088Z,3.92
2023-03-25T13:54:52.271Z,3.28
2023-03-25T13:57:56.231Z,5.50
2023-03-25T14:00:41.560Z,3.35
2023-03-25T14:03:34.202Z,2.60
2023-03-25T14:06:43.397Z,4.03
2023-03-25T14:09:42.280Z,5.45
2023-03-25T14:12:26.003Z,7.40
2023-03-25T14:15:16.031Z,6.35
2023-03-25T14:17:45.380Z,4.35
2023-03-25T14:20:19.105Z,5.30
2023-03-25T14:22:46.288Z,3.35
2023-03-25T14:25:28.709Z,3.92
2023-03-25T14:27:55.805Z,6.18
2023-03-25T14:30:25.364Z,6.88
2023-03-25T14:32:54.673Z,5.30
2023-03-25T14:35:41.006Z,5.95
2023-03-25T14:38:07.808Z,6.00
2023-03-25T14:40:59.062Z,4.85
2023-03-25T14:43:35.998Z,5.80
2023-03-25T14:46:06.551Z,6.47
2023-03-25T14:48:45.448Z,3.97
2023-03-25T14:51:44.634Z,4.65
2023-03-25T14:54:18.646Z,6.60
2023-03-25T14:56:57.898Z,4.40
2023-03-25T14:59:31.896Z,3.38
2023-03-25T15:02:13.721Z,4.93
2023-03-25T15:04:40.481Z,5.13
2023-03-25T15:07:12.675Z,6.53
2023-03-25T15:10:06.000Z,7.10
2023-03-25T15:12:37.289Z,5.07
2023-03-25T15:15:24.653Z,5.80
2023-03-25T15:17:51.401Z,6.32
2023-03-25T15:20:23.919Z,5.18
2023-03-25T15:23:18.433Z,6.43
2023-03-25T15:25:46.441Z,3.78
2023-03-25T15:28:28.118Z,7.40
2023-03-25T15:31:10.999Z,3.58
2023-03-25T15:33:52.424Z,4.65
2023-03-25T15:36:56.487Z,3.20
2023-03-25T15:39:45.548Z,5.72
2023-03-25T15:42:29.436Z,4.85
2023-03-25T15:45:41.115Z,4.85
2023-03-25T15:48:15.917Z,5.47
2023-03-25T15:51:33.806Z,4.80
2023-03-25T15:54:14.363Z,3.40
2023-03-25T15:56:42.473Z,5.43
2023-03-25T15:59:30.097Z,5.85
2023-03-25T16:01:57.779Z,2.83
2023-03-25T16:04:47.186Z,3.53
2023-03-25T16:07:15.730Z,4.73
2023-03-25T16:09:49.707Z,2.03
2023-03-25T16:12:24.248Z,4.57
2023-03-25T16:14:52.007Z,4.97
2023-03-25T16:17:20.744Z,3.05
2023-03-25T16:19:54.347Z,3.60
2023-03-25T16:22:27.582Z,3.35
2023-03-25T16:24:59.386Z,2.78
2023-03-25T16:27:30.538Z,4.97
2023-03-25T16:29:57.722Z,3.70
2023-03-25T16:32:27.189Z,5.18
2023-03-25T16:34:53.983Z,2.50
2023-03-25T16:37:21.969Z,5.32
2023-03-25T16:39:52.755Z,3.78
2023-03-25T16:42:26.845Z,6.32
2023-03-25T16:44:54.629Z,3.90
2023-03-25T16:47:22.240Z,4.35
2023-03-25T16:49:50.846Z,6.82
2023-03-25T16:52:22.410Z,4.70
2023-03-25T16:54:52.124Z,6.00
2023-03-25T16:57:48.355Z,2.35
2023-03-25T17:00:25.445Z,3.30
2023-03-25T17:02:53.965Z,2.88
2023-03-25T17:05:26.086Z,2.50
2023-03-25T17:08:11.215Z,2.47
2023-03-25T17:10:55.532Z,2.35
2023-03-25T17:13:29.658Z,2.28
2023-03-25T17:15:56.421Z,3.03
2023-03-25T17:18:31.478Z,3.75
2023-03-25T17:21:01.639Z,2.40
2023-03-25T17:23:35.290Z,1.73
2023-03-25T17:26:07.454Z,0.90
2023-03-25T17:28:53.100Z,3.63
2023-03-25T17:31:34.818Z,2.10
2023-03-25T17:34:19.303Z,1.02
2023-03-25T17:36:50.284Z,1.65
2023-03-25T17:39:23.269Z,1.75
2023-03-25T17:41:55.885Z,1.75
2023-03-25T17:44:22.507Z,3.63
2023-03-25T17:46:49.539Z,3.58
2023-03-25T17:49:18.729Z,1.02
2023-03-25T17:51:46.444Z,2.22
2023-03-25T17:54:14.401Z,2.65
2023-03-25T17:56:42.066Z,2.15
2023-03-25T17:59:20.334Z,1.77
2023-03-25T18:01:49.758Z,2.35
2023-03-25T18:04:18.281Z,2.70
2023-03-25T18:06:45.549Z,2.25
2023-03-25T18:09:30.997Z,6.35
2023-03-25T18:12:00.134Z,6.60
2023-03-25T18:14:28.486Z,4.28
2023-03-25T18:16:56.786Z,3.90
2023-03-25T18:19:26.321Z,4.68
2023-03-25T18:21:54.325Z,5.30
2023-03-25T18:24:22.918Z,3.53
2023-03-25T18:26:51.260Z,6.88
2023-03-25T18:29:24.167Z,2.25
2023-03-25T18:31:51.361Z,5.68
2023-03-25T18:34:20.454Z,3.90
2023-03-25T18:36:49.412Z,4.32
2023-03-25T18:39:18.706Z,6.35
2023-03-25T18:41:45.684Z,4.85
2023-03-25T18:44:12.992Z,4.05
2023-03-25T18:46:40.113Z,8.75
2023-03-25T18:49:13.009Z,7.57
2023-03-25T18:51:39.765Z,4.32
2023-03-25T18:54:06.388Z,7.78
2023-03-25T18:56:33.023Z,6.10
2023-03-25T18:59:01.090Z,10.13
2023-03-25T19:01:27.779Z,6.38
2023-03-25T19:04:02.798Z,9.48
2023-03-25T19:06:29.930Z,6.25
2023-03-25T19:08:57.294Z,6.95
2023-03-25T19:11:24.543Z,5.30
2023-03-25T19:13:51.666Z,4.47
2023-03-25T19:16:18.440Z,4.35
2023-03-25T19:18:46.810Z,7.50
2023-03-25T19:21:18.487Z,4.78
2023-03-25T19:23:46.241Z,4.88
2023-03-25T19:26:13.293Z,6.25
2023-03-25T19:28:40.181Z,3.85
2023-03-25T19:31:07.062Z,5.38
2023-03-25T19:33:33.942Z,3.40
2023-03-25T19:36:03.622Z,4.80
2023-03-25T19:38:32.607Z,5.15
2023-03-25T19:41:17.461Z,6.80
2023-03-25T19:43:44.338Z,6.82
2023-03-25T19:46:11.252Z,3.38
2023-03-25T19:48:37.997Z,4.18
2023-03-25T19:51:04.991Z,3.97
2023-03-25T19:53:31.645Z,7.88
2023-03-25T19:56:02.710Z,5.85
2023-03-25T19:58:29.321Z,7.95
2023-03-25T20:00:55.947Z,3.33
2023-03-25T20:03:23.804Z,4.22
2023-03-25T20:05:56.898Z,5.18
2023-03-25T20:08:23.839Z,5.53
2023-03-25T20:10:51.146Z,4.25
2023-03-25T20:13:18.194Z,5.20
2023-03-25T20:15:45.019Z,6.20
2023-03-25T20:18:11.825Z,8.00
2023-03-25T20:20:39.994Z,6.55
2023-03-25T20:23:06.710Z,5.55
2023-03-25T20:25:33.508Z,5.53
2023-03-25T20:28:00.661Z,7.30
2023-03-25T20:30:27.673Z,4.32
2023-03-25T20:32:54.318Z,6.13
2023-03-25T20:35:21.231Z,3.35
2023-03-25T20:37:49.074Z,5.05
2023-03-25T20:40:17.608Z,6.32
2023-03-25T20:42:45.830Z,4.47
2023-03-25T20:45:14.470Z,6.95
2023-03-25T20:47:42.021Z,6.20
2023-03-25T20:50:09.747Z,7.07
2023-03-25T20:52:36.481Z,5.07
2023-03-25T20:55:05.645Z,7.07
2023-03-25T20:57:32.520Z,5.45
2023-03-25T20:59:59.177Z,6.07
2023-03-25T21:02:27.333Z,4.30
2023-03-25T21:04:56.855Z,5.15
2023-03-25T21:07:27.741Z,7.77
2023-03-25T21:09:54.764Z,6.60
2023-03-25T21:12:27.084Z,4.25
2023-03-25T21:14:59.884Z,3.75
2023-03-25T21:17:27.904Z,5.70
2023-03-25T21:19:54.760Z,7.47
2023-03-25T21:22:21.903Z,4.15
2023-03-25T21:24:48.571Z,6.97
2023-03-25T21:27:17.588Z,6.97
2023-03-25T21:29:45.900Z,7.32
2023-03-25T21:32:13.897Z,7.60
2023-03-25T21:34:40.637Z,6.15
2023-03-25T21:37:07.245Z,6.75
2023-03-25T21:39:33.838Z,9.90
2023-03-25T21:42:00.396Z,6.28
2023-03-25T21:44:37.528Z,9.05
2023-03-25T21:47:08.448Z,7.13
2023-03-25T21:49:35.285Z,6.75
2023-03-25T21:52:02.229Z,4.60
2023-03-25T21:54:28.938Z,5.10
2023-03-25T21:56:55.706Z,5.05
2023-03-25T21:59:22.621Z,6.88
2023-03-25T22:01:49.338Z,6.85
2023-03-25T22:04:17.834Z,9.13
2023-03-25T22:06:44.531Z,6.13
2023-03-25T22:09:11.103Z,5.75
2023-03-25T22:11:37.816Z,4.60
2023-03-25T22:14:05.404Z,7.65
2023-03-25T22:16:32.648Z,7.10
2023-03-25T22:18:59.337Z,9.65
2023-03-25T22:21:29.778Z,4.68
2023-03-25T22:24:01.700Z,5.50
2023-03-25T22:26:30.378Z,6.22
2023-03-25T22:29:00.766Z,8.98
2023-03-25T22:34:02.988Z,11.48
2023-03-25T22:36:31.187Z,12.85
2023-03-25T22:38:58.154Z,9.63
2023-03-25T22:41:27.314Z,9.57
2023-03-25T22:43:54.105Z,12.10
2023-03-25T22:46:20.717Z,10.55
2023-03-25T22:48:47.380Z,12.25
2023-03-25T22:51:16.630Z,11.80
2023-03-25T22:53:43.851Z,10.90
2023-03-25T22:56:10.898Z,11.57
2023-03-25T22:58:38.270Z,10.05
2023-03-25T23:01:20.804Z,7.72
2023-03-25T23:03:47.643Z,10.38
2023-03-25T23:06:14.558Z,12.30
2023-03-25T23:08:41.712Z,14.40
2023-03-25T23:11:17.307Z,12.40
2023-03-25T23:13:46.515Z,11.35
2023-03-25T23:16:18.340Z,12.23
2023-03-25T23:18:45.352Z,9.68
2023-03-25T23:21:14.086Z,11.57
2023-03-25T23:23:52.762Z,10.75
2023-03-25T23:26:26.430Z,9.10
2023-03-25T23:28:56.357Z,14.55
2023-03-25T23:31:28.597Z,10.32
2023-03-25T23:33:57.542Z,9.45
2023-03-25T23:36:25.422Z,12.20
2023-03-25T23:38:52.343Z,17.98
2023-03-25T23:41:23.259Z,13.52
2023-03-25T23:43:51.559Z,9.13
2023-03-25T23:46:19.901Z,11.18
2023-03-25T23:48:47.525Z,8.18
2023-03-25T23:51:17.813Z,10.43
2023-03-25T23:56:12.763Z,14.18
2023-03-25T23:58:39.543Z,9.98
